首页
METAR-TAF:

METAR-TAF

机场 :

伊魁特機場

伊魁特, 努那武特, 加拿大

纬度: 63-45N, 经度: 068-33W, 海拔: 34米

当前天气观测

该预报发布于35分钟前的16:00 UTC
风速2节,风向多变
温度 -9°C
湿度 79%
气压 1022 hPa
能見度: 48.3公里
少量云层高于1500英尺
少量云层高于3600英尺
散云层高于20000英尺

METAR: CYFB 201600Z VRB02KT 30SM FEW015 FEW036 SCT200 M09/M12 A3018 RMK SF1SC2CI2 SF TR SLP226

时间: 11:35 (16:35 UTC)

预报

该预报发布于1小时和57分钟前的14:38 UTC
预报有效从20日的 14点(UTC)到 21日的 12点(UTC)
风速5节,风向东转东南
能見度: 10公里
散云层高于1000英尺
散云层高于4000英尺
从 20日的 1800点(UTC)
风速3节,风向多变
能見度: 10公里
散云层高于1000英尺
多云层高于4000英尺
短暂存在
从 20日的 18点(UTC)到 21日的 09点(UTC)
能見度: 9.7公里
多云层高于1000英尺
多云层高于4000英尺
小阵雪
从 21日的 0900点(UTC)
风速8节,风向北转东北
能見度: 10公里
散云层高于1000英尺
散云层高于4000英尺

TAF: CYFB 201438Z 2014/2112 12005KT P6SM SCT010 SCT040 FM201800 VRB03KT P6SM SCT010 BKN040 TEMPO 2018/2109 6SM -SHSN BKN010 BKN040 FM210900 02008KT P6SM SCT010 SCT040 RMK NXT FCST BY 201800Z

超过4000个机场的气象观测和天气预报(METAR&TAF报告)。

可查询的气象台以黄色和红色小点在地图上表示。

将鼠标移到小点上方,可查看气象台名称。

然后点击查看天气观测和预报。

如需切换地图:点击带黑十字的绿色按钮放大地图;点击带横线的绿色按钮缩小地图;或者点击绿色箭头查看邻近地区的地图。


METAR-TAF: